sensor_id;sensor_type;location;lat;lon;timestamp;P1;durP1;ratioP1;P2;durP2;ratioP2
5961;SDS011;3007;50.770;0.250;2024-01-16T00:00:42;5.53;;;2.70;;
5961;SDS011;3007;50.770;0.250;2024-01-16T00:03:09;5.93;;;2.87;;
5961;SDS011;3007;50.770;0.250;2024-01-16T00:05:36;6.27;;;2.93;;
5961;SDS011;3007;50.770;0.250;2024-01-16T00:08:03;5.20;;;2.77;;
5961;SDS011;3007;50.770;0.250;2024-01-16T00:10:30;4.53;;;2.57;;
5961;SDS011;3007;50.770;0.250;2024-01-16T00:12:58;5.67;;;2.93;;
5961;SDS011;3007;50.770;0.250;2024-01-16T00:15:25;7.93;;;3.27;;
5961;SDS011;3007;50.770;0.250;2024-01-16T00:17:52;6.17;;;3.10;;
5961;SDS011;3007;50.770;0.250;2024-01-16T00:20:19;7.33;;;3.13;;
5961;SDS011;3007;50.770;0.250;2024-01-16T00:22:47;4.63;;;2.60;;
5961;SDS011;3007;50.770;0.250;2024-01-16T00:25:14;6.17;;;3.43;;
5961;SDS011;3007;50.770;0.250;2024-01-16T00:27:42;9.20;;;3.47;;
5961;SDS011;3007;50.770;0.250;2024-01-16T00:30:11;6.17;;;3.20;;
5961;SDS011;3007;50.770;0.250;2024-01-16T00:32:38;4.70;;;2.70;;
5961;SDS011;3007;50.770;0.250;2024-01-16T00:35:05;6.73;;;3.00;;
5961;SDS011;3007;50.770;0.250;2024-01-16T00:37:33;8.43;;;3.40;;
5961;SDS011;3007;50.770;0.250;2024-01-16T00:40:01;4.13;;;2.83;;
5961;SDS011;3007;50.770;0.250;2024-01-16T00:42:31;5.10;;;2.30;;
5961;SDS011;3007;50.770;0.250;2024-01-16T00:44:58;5.83;;;2.90;;
5961;SDS011;3007;50.770;0.250;2024-01-16T00:47:26;5.37;;;2.70;;
5961;SDS011;3007;50.770;0.250;2024-01-16T00:49:53;4.37;;;2.50;;
5961;SDS011;3007;50.770;0.250;2024-01-16T00:52:20;4.67;;;2.13;;
5961;SDS011;3007;50.770;0.250;2024-01-16T00:54:47;8.40;;;2.80;;
5961;SDS011;3007;50.770;0.250;2024-01-16T00:57:13;3.87;;;2.40;;
5961;SDS011;3007;50.770;0.250;2024-01-16T00:59:44;5.53;;;2.80;;
5961;SDS011;3007;50.770;0.250;2024-01-16T01:02:14;6.77;;;3.40;;
5961;SDS011;3007;50.770;0.250;2024-01-16T01:04:42;5.10;;;2.60;;
5961;SDS011;3007;50.770;0.250;2024-01-16T01:07:12;3.80;;;1.80;;
5961;SDS011;3007;50.770;0.250;2024-01-16T01:09:39;3.80;;;1.83;;
5961;SDS011;3007;50.770;0.250;2024-01-16T01:12:07;5.20;;;1.50;;
5961;SDS011;3007;50.770;0.250;2024-01-16T01:14:34;3.10;;;1.73;;
5961;SDS011;3007;50.770;0.250;2024-01-16T01:17:01;2.23;;;1.43;;
5961;SDS011;3007;50.770;0.250;2024-01-16T01:19:29;3.30;;;1.50;;
5961;SDS011;3007;50.770;0.250;2024-01-16T01:21:57;3.77;;;1.77;;
5961;SDS011;3007;50.770;0.250;2024-01-16T01:24:24;3.27;;;1.30;;
5961;SDS011;3007;50.770;0.250;2024-01-16T01:26:50;4.63;;;1.40;;
5961;SDS011;3007;50.770;0.250;2024-01-16T01:29:17;4.03;;;1.80;;
5961;SDS011;3007;50.770;0.250;2024-01-16T01:31:45;3.83;;;1.70;;
5961;SDS011;3007;50.770;0.250;2024-01-16T01:34:13;5.30;;;1.70;;
5961;SDS011;3007;50.770;0.250;2024-01-16T01:36:40;5.33;;;1.67;;
5961;SDS011;3007;50.770;0.250;2024-01-16T01:39:09;5.10;;;1.80;;
5961;SDS011;3007;50.770;0.250;2024-01-16T01:41:37;6.63;;;1.70;;
5961;SDS011;3007;50.770;0.250;2024-01-16T01:44:04;2.57;;;1.93;;
5961;SDS011;3007;50.770;0.250;2024-01-16T01:46:32;2.70;;;1.40;;
5961;SDS011;3007;50.770;0.250;2024-01-16T01:49:00;4.90;;;1.70;;
5961;SDS011;3007;50.770;0.250;2024-01-16T01:51:27;3.37;;;1.40;;
5961;SDS011;3007;50.770;0.250;2024-01-16T01:53:55;4.43;;;1.60;;
5961;SDS011;3007;50.770;0.250;2024-01-16T01:56:25;3.97;;;1.77;;
5961;SDS011;3007;50.770;0.250;2024-01-16T01:58:53;6.17;;;2.00;;
5961;SDS011;3007;50.770;0.250;2024-01-16T02:01:22;2.67;;;1.37;;
5961;SDS011;3007;50.770;0.250;2024-01-16T02:03:51;2.70;;;1.37;;
5961;SDS011;3007;50.770;0.250;2024-01-16T02:06:21;3.33;;;1.30;;
5961;SDS011;3007;50.770;0.250;2024-01-16T02:08:49;4.83;;;1.63;;
5961;SDS011;3007;50.770;0.250;2024-01-16T02:11:17;2.93;;;1.10;;
5961;SDS011;3007;50.770;0.250;2024-01-16T02:13:45;2.63;;;1.40;;
5961;SDS011;3007;50.770;0.250;2024-01-16T02:16:18;2.73;;;1.20;;
5961;SDS011;3007;50.770;0.250;2024-01-16T02:18:46;4.53;;;1.73;;
5961;SDS011;3007;50.770;0.250;2024-01-16T02:21:14;3.10;;;1.60;;
5961;SDS011;3007;50.770;0.250;2024-01-16T02:23:46;4.00;;;1.30;;
5961;SDS011;3007;50.770;0.250;2024-01-16T02:26:13;2.50;;;1.30;;
5961;SDS011;3007;50.770;0.250;2024-01-16T02:28:43;3.80;;;1.30;;
5961;SDS011;3007;50.770;0.250;2024-01-16T02:31:10;1.87;;;1.00;;
5961;SDS011;3007;50.770;0.250;2024-01-16T02:33:37;1.40;;;1.03;;
5961;SDS011;3007;50.770;0.250;2024-01-16T02:36:04;3.23;;;1.00;;
5961;SDS011;3007;50.770;0.250;2024-01-16T02:38:31;2.00;;;0.90;;
5961;SDS011;3007;50.770;0.250;2024-01-16T02:40:59;2.83;;;1.47;;
5961;SDS011;3007;50.770;0.250;2024-01-16T02:43:26;1.80;;;1.20;;
5961;SDS011;3007;50.770;0.250;2024-01-16T02:45:53;2.27;;;1.30;;
5961;SDS011;3007;50.770;0.250;2024-01-16T02:48:20;4.73;;;1.13;;
5961;SDS011;3007;50.770;0.250;2024-01-16T02:50:47;3.47;;;1.33;;
5961;SDS011;3007;50.770;0.250;2024-01-16T02:53:13;3.53;;;1.30;;
5961;SDS011;3007;50.770;0.250;2024-01-16T02:55:40;3.63;;;1.60;;
5961;SDS011;3007;50.770;0.250;2024-01-16T02:58:09;2.03;;;1.20;;
5961;SDS011;3007;50.770;0.250;2024-01-16T03:00:35;2.83;;;1.40;;
5961;SDS011;3007;50.770;0.250;2024-01-16T03:03:02;1.83;;;1.13;;
5961;SDS011;3007;50.770;0.250;2024-01-16T03:05:29;2.40;;;1.20;;
5961;SDS011;3007;50.770;0.250;2024-01-16T03:07:56;3.47;;;1.20;;
5961;SDS011;3007;50.770;0.250;2024-01-16T03:10:26;1.97;;;1.20;;
5961;SDS011;3007;50.770;0.250;2024-01-16T03:12:52;2.97;;;1.20;;
5961;SDS011;3007;50.770;0.250;2024-01-16T03:15:21;2.33;;;1.00;;
5961;SDS011;3007;50.770;0.250;2024-01-16T03:17:47;2.57;;;1.10;;
5961;SDS011;3007;50.770;0.250;2024-01-16T03:20:15;2.90;;;1.50;;
5961;SDS011;3007;50.770;0.250;2024-01-16T03:22:43;2.57;;;0.90;;
5961;SDS011;3007;50.770;0.250;2024-01-16T03:25:10;2.47;;;1.43;;
5961;SDS011;3007;50.770;0.250;2024-01-16T03:27:37;3.13;;;1.33;;
5961;SDS011;3007;50.770;0.250;2024-01-16T03:30:05;3.33;;;1.27;;
5961;SDS011;3007;50.770;0.250;2024-01-16T03:32:34;1.07;;;0.90;;
5961;SDS011;3007;50.770;0.250;2024-01-16T03:35:01;5.43;;;1.17;;
5961;SDS011;3007;50.770;0.250;2024-01-16T03:37:28;2.93;;;1.33;;
5961;SDS011;3007;50.770;0.250;2024-01-16T03:39:55;2.07;;;1.20;;
5961;SDS011;3007;50.770;0.250;2024-01-16T03:42:22;1.80;;;1.20;;
5961;SDS011;3007;50.770;0.250;2024-01-16T03:44:49;4.00;;;1.20;;
5961;SDS011;3007;50.770;0.250;2024-01-16T03:47:16;5.97;;;1.50;;
5961;SDS011;3007;50.770;0.250;2024-01-16T03:49:44;3.57;;;1.57;;
5961;SDS011;3007;50.770;0.250;2024-01-16T03:52:11;3.53;;;1.53;;
5961;SDS011;3007;50.770;0.250;2024-01-16T03:54:38;4.00;;;1.17;;
5961;SDS011;3007;50.770;0.250;2024-01-16T03:57:05;5.60;;;2.10;;
5961;SDS011;3007;50.770;0.250;2024-01-16T03:59:32;5.10;;;1.20;;
5961;SDS011;3007;50.770;0.250;2024-01-16T04:02:00;4.43;;;1.03;;
5961;SDS011;3007;50.770;0.250;2024-01-16T04:04:28;3.40;;;1.20;;
5961;SDS011;3007;50.770;0.250;2024-01-16T04:06:56;2.07;;;1.00;;
5961;SDS011;3007;50.770;0.250;2024-01-16T04:09:23;2.87;;;1.03;;
5961;SDS011;3007;50.770;0.250;2024-01-16T04:11:50;4.03;;;1.00;;
5961;SDS011;3007;50.770;0.250;2024-01-16T04:14:17;1.40;;;0.93;;
5961;SDS011;3007;50.770;0.250;2024-01-16T04:16:43;1.70;;;0.90;;
5961;SDS011;3007;50.770;0.250;2024-01-16T04:19:10;3.17;;;1.03;;
5961;SDS011;3007;50.770;0.250;2024-01-16T04:21:37;1.37;;;0.60;;
5961;SDS011;3007;50.770;0.250;2024-01-16T04:24:06;2.33;;;1.03;;
5961;SDS011;3007;50.770;0.250;2024-01-16T04:26:35;1.30;;;0.70;;
5961;SDS011;3007;50.770;0.250;2024-01-16T04:29:02;1.07;;;0.83;;
5961;SDS011;3007;50.770;0.250;2024-01-16T04:31:29;3.17;;;1.00;;
5961;SDS011;3007;50.770;0.250;2024-01-16T04:33:57;5.97;;;1.47;;
5961;SDS011;3007;50.770;0.250;2024-01-16T04:36:24;2.60;;;1.10;;
5961;SDS011;3007;50.770;0.250;2024-01-16T04:38:51;2.23;;;0.80;;
5961;SDS011;3007;50.770;0.250;2024-01-16T04:41:19;1.63;;;0.73;;
5961;SDS011;3007;50.770;0.250;2024-01-16T04:43:46;2.37;;;0.90;;
5961;SDS011;3007;50.770;0.250;2024-01-16T04:46:14;1.43;;;0.87;;
5961;SDS011;3007;50.770;0.250;2024-01-16T04:48:41;5.70;;;1.10;;
5961;SDS011;3007;50.770;0.250;2024-01-16T04:51:08;2.37;;;0.90;;
5961;SDS011;3007;50.770;0.250;2024-01-16T04:53:35;1.47;;;0.93;;
5961;SDS011;3007;50.770;0.250;2024-01-16T04:56:01;3.03;;;1.10;;
5961;SDS011;3007;50.770;0.250;2024-01-16T04:58:30;1.77;;;0.97;;
5961;SDS011;3007;50.770;0.250;2024-01-16T05:00:57;3.17;;;0.80;;
5961;SDS011;3007;50.770;0.250;2024-01-16T05:03:23;1.97;;;0.90;;
5961;SDS011;3007;50.770;0.250;2024-01-16T05:05:50;1.83;;;0.93;;
5961;SDS011;3007;50.770;0.250;2024-01-16T05:08:17;1.90;;;0.90;;
5961;SDS011;3007;50.770;0.250;2024-01-16T05:10:44;2.10;;;0.90;;
5961;SDS011;3007;50.770;0.250;2024-01-16T05:13:11;2.90;;;1.20;;
5961;SDS011;3007;50.770;0.250;2024-01-16T05:15:39;3.77;;;0.90;;
5961;SDS011;3007;50.770;0.250;2024-01-16T05:18:07;1.73;;;0.90;;
5961;SDS011;3007;50.770;0.250;2024-01-16T05:20:34;2.87;;;1.30;;
5961;SDS011;3007;50.770;0.250;2024-01-16T05:23:01;2.97;;;1.10;;
5961;SDS011;3007;50.770;0.250;2024-01-16T05:25:28;1.60;;;1.20;;
5961;SDS011;3007;50.770;0.250;2024-01-16T05:27:55;2.80;;;1.07;;
5961;SDS011;3007;50.770;0.250;2024-01-16T05:30:22;2.40;;;0.83;;
5961;SDS011;3007;50.770;0.250;2024-01-16T05:32:51;1.73;;;1.00;;
5961;SDS011;3007;50.770;0.250;2024-01-16T05:35:17;2.97;;;1.17;;
5961;SDS011;3007;50.770;0.250;2024-01-16T05:37:44;2.37;;;1.00;;
5961;SDS011;3007;50.770;0.250;2024-01-16T05:40:11;2.30;;;1.00;;
5961;SDS011;3007;50.770;0.250;2024-01-16T05:42:38;4.27;;;1.10;;
5961;SDS011;3007;50.770;0.250;2024-01-16T05:45:05;1.83;;;0.80;;
5961;SDS011;3007;50.770;0.250;2024-01-16T05:47:33;2.97;;;0.90;;
5961;SDS011;3007;50.770;0.250;2024-01-16T05:50:02;2.30;;;1.10;;
5961;SDS011;3007;50.770;0.250;2024-01-16T05:52:29;4.30;;;0.90;;
5961;SDS011;3007;50.770;0.250;2024-01-16T05:54:56;5.20;;;0.93;;
5961;SDS011;3007;50.770;0.250;2024-01-16T05:57:24;1.90;;;0.87;;
5961;SDS011;3007;50.770;0.250;2024-01-16T05:59:51;1.30;;;0.63;;
5961;SDS011;3007;50.770;0.250;2024-01-16T06:02:18;1.87;;;0.80;;
5961;SDS011;3007;50.770;0.250;2024-01-16T06:04:45;2.30;;;0.80;;
5961;SDS011;3007;50.770;0.250;2024-01-16T06:07:13;1.10;;;0.70;;
5961;SDS011;3007;50.770;0.250;2024-01-16T06:09:40;2.37;;;0.70;;
5961;SDS011;3007;50.770;0.250;2024-01-16T06:12:08;2.00;;;0.70;;
5961;SDS011;3007;50.770;0.250;2024-01-16T06:14:35;3.77;;;0.90;;
5961;SDS011;3007;50.770;0.250;2024-01-16T06:17:02;2.53;;;0.73;;
5961;SDS011;3007;50.770;0.250;2024-01-16T06:19:30;2.07;;;0.80;;
5961;SDS011;3007;50.770;0.250;2024-01-16T06:21:58;2.93;;;0.70;;
5961;SDS011;3007;50.770;0.250;2024-01-16T06:24:26;2.87;;;1.00;;
5961;SDS011;3007;50.770;0.250;2024-01-16T06:26:54;2.07;;;0.70;;
5961;SDS011;3007;50.770;0.250;2024-01-16T06:29:21;2.43;;;0.87;;
5961;SDS011;3007;50.770;0.250;2024-01-16T06:31:48;4.77;;;0.90;;
5961;SDS011;3007;50.770;0.250;2024-01-16T06:34:14;2.07;;;0.90;;
5961;SDS011;3007;50.770;0.250;2024-01-16T06:36:41;1.70;;;0.90;;
5961;SDS011;3007;50.770;0.250;2024-01-16T06:39:08;2.20;;;1.00;;
5961;SDS011;3007;50.770;0.250;2024-01-16T06:41:40;2.63;;;1.20;;
5961;SDS011;3007;50.770;0.250;2024-01-16T06:44:07;3.97;;;1.07;;
5961;SDS011;3007;50.770;0.250;2024-01-16T06:46:34;1.57;;;0.73;;
5961;SDS011;3007;50.770;0.250;2024-01-16T06:49:01;2.47;;;1.27;;
5961;SDS011;3007;50.770;0.250;2024-01-16T06:51:28;3.93;;;1.40;;
5961;SDS011;3007;50.770;0.250;2024-01-16T06:53:55;3.10;;;1.27;;
5961;SDS011;3007;50.770;0.250;2024-01-16T06:56:22;2.33;;;0.97;;
5961;SDS011;3007;50.770;0.250;2024-01-16T06:58:50;2.47;;;1.00;;
5961;SDS011;3007;50.770;0.250;2024-01-16T07:01:18;1.77;;;1.10;;
5961;SDS011;3007;50.770;0.250;2024-01-16T07:03:44;4.20;;;1.90;;
5961;SDS011;3007;50.770;0.250;2024-01-16T07:06:11;2.37;;;1.20;;
5961;SDS011;3007;50.770;0.250;2024-01-16T07:08:38;2.97;;;1.40;;
5961;SDS011;3007;50.770;0.250;2024-01-16T07:11:05;2.13;;;1.10;;
5961;SDS011;3007;50.770;0.250;2024-01-16T07:13:33;4.73;;;1.33;;
5961;SDS011;3007;50.770;0.250;2024-01-16T07:16:02;2.70;;;1.40;;
5961;SDS011;3007;50.770;0.250;2024-01-16T07:18:29;2.40;;;1.30;;
5961;SDS011;3007;50.770;0.250;2024-01-16T07:20:56;3.87;;;1.70;;
5961;SDS011;3007;50.770;0.250;2024-01-16T07:23:23;2.93;;;1.40;;
5961;SDS011;3007;50.770;0.250;2024-01-16T07:25:50;5.63;;;1.73;;
5961;SDS011;3007;50.770;0.250;2024-01-16T07:28:16;4.33;;;1.30;;
5961;SDS011;3007;50.770;0.250;2024-01-16T07:30:45;3.77;;;1.43;;
5961;SDS011;3007;50.770;0.250;2024-01-16T07:33:13;3.70;;;1.33;;
5961;SDS011;3007;50.770;0.250;2024-01-16T07:35:42;7.80;;;1.57;;
5961;SDS011;3007;50.770;0.250;2024-01-16T07:38:12;2.70;;;1.10;;
5961;SDS011;3007;50.770;0.250;2024-01-16T07:40:51;4.13;;;1.30;;
5961;SDS011;3007;50.770;0.250;2024-01-16T07:43:19;2.70;;;1.10;;
5961;SDS011;3007;50.770;0.250;2024-01-16T07:45:46;1.93;;;1.20;;
5961;SDS011;3007;50.770;0.250;2024-01-16T07:48:15;3.93;;;1.63;;
5961;SDS011;3007;50.770;0.250;2024-01-16T07:50:44;3.47;;;1.50;;
5961;SDS011;3007;50.770;0.250;2024-01-16T07:53:13;3.03;;;1.50;;
5961;SDS011;3007;50.770;0.250;2024-01-16T07:55:43;4.57;;;1.60;;
5961;SDS011;3007;50.770;0.250;2024-01-16T07:58:10;6.47;;;1.90;;
5961;SDS011;3007;50.770;0.250;2024-01-16T08:00:37;5.47;;;1.67;;
5961;SDS011;3007;50.770;0.250;2024-01-16T08:03:07;122.37;;;9.10;;
5961;SDS011;3007;50.770;0.250;2024-01-16T08:05:38;41.20;;;4.90;;
5961;SDS011;3007;50.770;0.250;2024-01-16T08:08:07;43.40;;;5.50;;
5961;SDS011;3007;50.770;0.250;2024-01-16T08:10:44;31.33;;;3.60;;
5961;SDS011;3007;50.770;0.250;2024-01-16T08:13:14;57.50;;;5.77;;
5961;SDS011;3007;50.770;0.250;2024-01-16T08:15:41;30.03;;;3.57;;
5961;SDS011;3007;50.770;0.250;2024-01-16T08:18:08;23.33;;;3.60;;
5961;SDS011;3007;50.770;0.250;2024-01-16T08:20:42;11.90;;;2.30;;
5961;SDS011;3007;50.770;0.250;2024-01-16T08:23:09;29.03;;;6.93;;
5961;SDS011;3007;50.770;0.250;2024-01-16T08:25:37;55.60;;;6.13;;
5961;SDS011;3007;50.770;0.250;2024-01-16T08:28:05;13.20;;;3.50;;
5961;SDS011;3007;50.770;0.250;2024-01-16T08:30:40;27.03;;;4.03;;
5961;SDS011;3007;50.770;0.250;2024-01-16T08:33:07;8.97;;;2.63;;
5961;SDS011;3007;50.770;0.250;2024-01-16T08:35:34;5.43;;;2.07;;
5961;SDS011;3007;50.770;0.250;2024-01-16T08:38:02;4.67;;;2.00;;
5961;SDS011;3007;50.770;0.250;2024-01-16T08:40:29;15.97;;;2.60;;
5961;SDS011;3007;50.770;0.250;2024-01-16T08:42:56;15.53;;;2.60;;
5961;SDS011;3007;50.770;0.250;2024-01-16T08:45:23;31.23;;;3.63;;
5961;SDS011;3007;50.770;0.250;2024-01-16T08:47:51;12.33;;;2.27;;
5961;SDS011;3007;50.770;0.250;2024-01-16T08:50:17;7.73;;;3.47;;
5961;SDS011;3007;50.770;0.250;2024-01-16T08:52:44;13.87;;;2.03;;
5961;SDS011;3007;50.770;0.250;2024-01-16T08:55:13;9.83;;;2.10;;
5961;SDS011;3007;50.770;0.250;2024-01-16T08:57:40;15.90;;;2.60;;
5961;SDS011;3007;50.770;0.250;2024-01-16T09:00:07;2.80;;;1.30;;
5961;SDS011;3007;50.770;0.250;2024-01-16T09:02:34;6.47;;;1.60;;
5961;SDS011;3007;50.770;0.250;2024-01-16T09:05:01;9.33;;;2.00;;
5961;SDS011;3007;50.770;0.250;2024-01-16T09:07:30;5.57;;;1.50;;
5961;SDS011;3007;50.770;0.250;2024-01-16T09:09:57;3.43;;;1.63;;
5961;SDS011;3007;50.770;0.250;2024-01-16T09:12:25;3.37;;;1.20;;
5961;SDS011;3007;50.770;0.250;2024-01-16T09:14:52;3.30;;;1.43;;
5961;SDS011;3007;50.770;0.250;2024-01-16T09:17:20;2.10;;;1.00;;
5961;SDS011;3007;50.770;0.250;2024-01-16T09:19:47;5.30;;;1.47;;
5961;SDS011;3007;50.770;0.250;2024-01-16T09:22:14;2.20;;;1.00;;
5961;SDS011;3007;50.770;0.250;2024-01-16T09:24:41;5.07;;;1.07;;
5961;SDS011;3007;50.770;0.250;2024-01-16T09:27:08;2.70;;;1.00;;
5961;SDS011;3007;50.770;0.250;2024-01-16T09:29:36;3.37;;;0.90;;
5961;SDS011;3007;50.770;0.250;2024-01-16T09:32:03;2.23;;;1.00;;
5961;SDS011;3007;50.770;0.250;2024-01-16T09:34:30;2.23;;;0.67;;
5961;SDS011;3007;50.770;0.250;2024-01-16T09:36:57;4.73;;;1.13;;
5961;SDS011;3007;50.770;0.250;2024-01-16T09:39:27;3.97;;;1.20;;
5961;SDS011;3007;50.770;0.250;2024-01-16T09:41:55;3.15;;;1.25;;
5961;SDS011;3007;50.770;0.250;2024-01-16T09:44:26;4.17;;;1.33;;
5961;SDS011;3007;50.770;0.250;2024-01-16T09:46:55;6.13;;;1.20;;
5961;SDS011;3007;50.770;0.250;2024-01-16T09:49:24;1.77;;;0.97;;
5961;SDS011;3007;50.770;0.250;2024-01-16T09:51:51;4.43;;;1.10;;
5961;SDS011;3007;50.770;0.250;2024-01-16T09:54:18;7.13;;;1.03;;
5961;SDS011;3007;50.770;0.250;2024-01-16T09:56:48;4.37;;;1.20;;
5961;SDS011;3007;50.770;0.250;2024-01-16T09:59:19;4.77;;;1.00;;
5961;SDS011;3007;50.770;0.250;2024-01-16T10:01:48;6.63;;;1.20;;
5961;SDS011;3007;50.770;0.250;2024-01-16T10:04:19;3.17;;;0.77;;
5961;SDS011;3007;50.770;0.250;2024-01-16T10:06:45;2.10;;;0.60;;
5961;SDS011;3007;50.770;0.250;2024-01-16T10:09:13;3.17;;;1.00;;
5961;SDS011;3007;50.770;0.250;2024-01-16T10:11:41;2.17;;;0.80;;
5961;SDS011;3007;50.770;0.250;2024-01-16T10:14:08;1.50;;;0.77;;
5961;SDS011;3007;50.770;0.250;2024-01-16T10:16:54;1.80;;;0.87;;
5961;SDS011;3007;50.770;0.250;2024-01-16T10:19:26;5.23;;;1.10;;
5961;SDS011;3007;50.770;0.250;2024-01-16T10:21:56;1.90;;;1.00;;
5961;SDS011;3007;50.770;0.250;2024-01-16T10:24:28;2.37;;;1.53;;
5961;SDS011;3007;50.770;0.250;2024-01-16T10:26:57;4.90;;;2.27;;
5961;SDS011;3007;50.770;0.250;2024-01-16T10:29:25;3.50;;;1.70;;
5961;SDS011;3007;50.770;0.250;2024-01-16T10:31:52;4.30;;;1.73;;
5961;SDS011;3007;50.770;0.250;2024-01-16T10:34:19;3.53;;;1.80;;
5961;SDS011;3007;50.770;0.250;2024-01-16T10:36:49;2.77;;;1.40;;
5961;SDS011;3007;50.770;0.250;2024-01-16T10:39:16;5.50;;;1.67;;
5961;SDS011;3007;50.770;0.250;2024-01-16T10:41:50;4.30;;;1.57;;
5961;SDS011;3007;50.770;0.250;2024-01-16T10:44:20;2.63;;;1.83;;
5961;SDS011;3007;50.770;0.250;2024-01-16T10:46:47;7.03;;;2.47;;
5961;SDS011;3007;50.770;0.250;2024-01-16T10:49:14;3.13;;;1.70;;
5961;SDS011;3007;50.770;0.250;2024-01-16T10:51:42;5.60;;;1.77;;
5961;SDS011;3007;50.770;0.250;2024-01-16T10:54:11;4.43;;;1.50;;
5961;SDS011;3007;50.770;0.250;2024-01-16T10:56:40;5.43;;;1.50;;
5961;SDS011;3007;50.770;0.250;2024-01-16T10:59:12;4.17;;;1.17;;
5961;SDS011;3007;50.770;0.250;2024-01-16T11:01:45;3.07;;;1.00;;
5961;SDS011;3007;50.770;0.250;2024-01-16T11:04:17;3.43;;;1.00;;
5961;SDS011;3007;50.770;0.250;2024-01-16T11:06:46;3.93;;;0.70;;
5961;SDS011;3007;50.770;0.250;2024-01-16T11:09:15;2.17;;;0.70;;
5961;SDS011;3007;50.770;0.250;2024-01-16T11:11:43;1.17;;;0.73;;
5961;SDS011;3007;50.770;0.250;2024-01-16T11:14:11;1.77;;;0.60;;
5961;SDS011;3007;50.770;0.250;2024-01-16T11:16:39;2.37;;;0.60;;
5961;SDS011;3007;50.770;0.250;2024-01-16T11:19:08;2.13;;;0.50;;
5961;SDS011;3007;50.770;0.250;2024-01-16T11:21:36;1.07;;;0.40;;
5961;SDS011;3007;50.770;0.250;2024-01-16T11:24:04;1.53;;;0.70;;
5961;SDS011;3007;50.770;0.250;2024-01-16T11:26:33;6.00;;;0.97;;
5961;SDS011;3007;50.770;0.250;2024-01-16T11:32:02;3.03;;;0.80;;
5961;SDS011;3007;50.770;0.250;2024-01-16T11:37:24;1.03;;;0.67;;
5961;SDS011;3007;50.770;0.250;2024-01-16T11:40:01;2.50;;;0.53;;
5961;SDS011;3007;50.770;0.250;2024-01-16T11:42:48;2.50;;;1.00;;
5961;SDS011;3007;50.770;0.250;2024-01-16T11:48:15;1.87;;;0.80;;
5961;SDS011;3007;50.770;0.250;2024-01-16T11:50:43;3.03;;;0.70;;
5961;SDS011;3007;50.770;0.250;2024-01-16T11:53:10;3.37;;;0.80;;
5961;SDS011;3007;50.770;0.250;2024-01-16T11:55:48;2.00;;;0.73;;
5961;SDS011;3007;50.770;0.250;2024-01-16T11:58:39;3.50;;;1.07;;
5961;SDS011;3007;50.770;0.250;2024-01-16T12:01:14;5.00;;;1.30;;
5961;SDS011;3007;50.770;0.250;2024-01-16T12:03:42;5.63;;;0.97;;
5961;SDS011;3007;50.770;0.250;2024-01-16T12:06:08;1.23;;;0.93;;
5961;SDS011;3007;50.770;0.250;2024-01-16T12:08:36;3.17;;;0.87;;
5961;SDS011;3007;50.770;0.250;2024-01-16T12:11:03;2.60;;;0.80;;
5961;SDS011;3007;50.770;0.250;2024-01-16T12:13:30;2.80;;;0.90;;
5961;SDS011;3007;50.770;0.250;2024-01-16T12:16:03;1.50;;;0.90;;
5961;SDS011;3007;50.770;0.250;2024-01-16T12:18:30;5.07;;;1.43;;
5961;SDS011;3007;50.770;0.250;2024-01-16T12:20:57;7.10;;;1.30;;
5961;SDS011;3007;50.770;0.250;2024-01-16T12:23:33;3.60;;;1.03;;
5961;SDS011;3007;50.770;0.250;2024-01-16T12:26:00;3.30;;;1.10;;
5961;SDS011;3007;50.770;0.250;2024-01-16T12:28:28;3.43;;;1.60;;
5961;SDS011;3007;50.770;0.250;2024-01-16T12:30:56;2.80;;;1.10;;
5961;SDS011;3007;50.770;0.250;2024-01-16T12:33:24;5.53;;;1.03;;
5961;SDS011;3007;50.770;0.250;2024-01-16T12:35:59;3.87;;;1.30;;
5961;SDS011;3007;50.770;0.250;2024-01-16T12:38:30;3.27;;;1.50;;
5961;SDS011;3007;50.770;0.250;2024-01-16T12:40:56;5.80;;;2.40;;
5961;SDS011;3007;50.770;0.250;2024-01-16T12:43:28;2.70;;;1.40;;
5961;SDS011;3007;50.770;0.250;2024-01-16T12:45:55;1.93;;;1.30;;
5961;SDS011;3007;50.770;0.250;2024-01-16T12:48:25;6.20;;;3.40;;
5961;SDS011;3007;50.770;0.250;2024-01-16T12:50:58;6.17;;;3.53;;
5961;SDS011;3007;50.770;0.250;2024-01-16T12:53:26;11.63;;;7.23;;
5961;SDS011;3007;50.770;0.250;2024-01-16T12:55:57;18.20;;;7.93;;
5961;SDS011;3007;50.770;0.250;2024-01-16T12:58:25;9.03;;;4.10;;
5961;SDS011;3007;50.770;0.250;2024-01-16T13:01:04;4.90;;;1.90;;
5961;SDS011;3007;50.770;0.250;2024-01-16T13:03:51;1.93;;;0.87;;
5961;SDS011;3007;50.770;0.250;2024-01-16T13:06:21;2.83;;;0.80;;
5961;SDS011;3007;50.770;0.250;2024-01-16T13:09:03;1.67;;;0.70;;
5961;SDS011;3007;50.770;0.250;2024-01-16T13:11:44;2.77;;;1.10;;
5961;SDS011;3007;50.770;0.250;2024-01-16T13:14:14;3.07;;;1.23;;
5961;SDS011;3007;50.770;0.250;2024-01-16T13:16:41;5.23;;;2.03;;
5961;SDS011;3007;50.770;0.250;2024-01-16T13:19:09;2.17;;;1.30;;
5961;SDS011;3007;50.770;0.250;2024-01-16T13:21:36;3.93;;;1.30;;
5961;SDS011;3007;50.770;0.250;2024-01-16T13:24:03;2.33;;;0.90;;
5961;SDS011;3007;50.770;0.250;2024-01-16T13:26:30;2.30;;;1.50;;
5961;SDS011;3007;50.770;0.250;2024-01-16T13:28:57;4.50;;;1.07;;
5961;SDS011;3007;50.770;0.250;2024-01-16T13:31:27;2.50;;;0.70;;
5961;SDS011;3007;50.770;0.250;2024-01-16T13:33:53;2.43;;;0.83;;
5961;SDS011;3007;50.770;0.250;2024-01-16T13:36:22;6.30;;;0.90;;
5961;SDS011;3007;50.770;0.250;2024-01-16T13:38:50;2.70;;;0.77;;
5961;SDS011;3007;50.770;0.250;2024-01-16T13:41:19;2.57;;;1.23;;
5961;SDS011;3007;50.770;0.250;2024-01-16T13:43:46;3.50;;;0.80;;
5961;SDS011;3007;50.770;0.250;2024-01-16T13:46:14;1.43;;;0.70;;
5961;SDS011;3007;50.770;0.250;2024-01-16T13:48:44;2.47;;;0.70;;
5961;SDS011;3007;50.770;0.250;2024-01-16T13:51:11;1.83;;;0.60;;
5961;SDS011;3007;50.770;0.250;2024-01-16T13:53:39;4.80;;;2.30;;
5961;SDS011;3007;50.770;0.250;2024-01-16T13:56:06;1.50;;;0.90;;
5961;SDS011;3007;50.770;0.250;2024-01-16T13:58:33;2.40;;;1.00;;
5961;SDS011;3007;50.770;0.250;2024-01-16T14:01:00;2.67;;;1.20;;
5961;SDS011;3007;50.770;0.250;2024-01-16T14:03:29;2.93;;;0.87;;
5961;SDS011;3007;50.770;0.250;2024-01-16T14:05:55;5.50;;;0.90;;
5961;SDS011;3007;50.770;0.250;2024-01-16T14:08:22;1.77;;;0.63;;
5961;SDS011;3007;50.770;0.250;2024-01-16T14:10:50;1.93;;;0.77;;
5961;SDS011;3007;50.770;0.250;2024-01-16T14:13:17;3.67;;;0.60;;
5961;SDS011;3007;50.770;0.250;2024-01-16T14:15:44;3.93;;;0.70;;
5961;SDS011;3007;50.770;0.250;2024-01-16T14:18:11;2.17;;;0.63;;
5961;SDS011;3007;50.770;0.250;2024-01-16T14:20:38;2.00;;;0.83;;
5961;SDS011;3007;50.770;0.250;2024-01-16T14:23:05;2.17;;;1.07;;
5961;SDS011;3007;50.770;0.250;2024-01-16T14:25:31;1.97;;;0.70;;
5961;SDS011;3007;50.770;0.250;2024-01-16T14:28:01;4.87;;;0.83;;
5961;SDS011;3007;50.770;0.250;2024-01-16T14:30:29;3.67;;;0.80;;
5961;SDS011;3007;50.770;0.250;2024-01-16T14:32:58;2.60;;;0.80;;
5961;SDS011;3007;50.770;0.250;2024-01-16T14:35:26;1.10;;;0.73;;
5961;SDS011;3007;50.770;0.250;2024-01-16T14:37:53;0.83;;;0.77;;
5961;SDS011;3007;50.770;0.250;2024-01-16T14:40:20;2.90;;;0.97;;
5961;SDS011;3007;50.770;0.250;2024-01-16T14:42:50;0.87;;;0.60;;
5961;SDS011;3007;50.770;0.250;2024-01-16T14:45:20;2.90;;;0.70;;
5961;SDS011;3007;50.770;0.250;2024-01-16T14:47:49;2.40;;;0.83;;
5961;SDS011;3007;50.770;0.250;2024-01-16T14:50:18;3.17;;;0.73;;
5961;SDS011;3007;50.770;0.250;2024-01-16T14:52:47;1.20;;;0.63;;
5961;SDS011;3007;50.770;0.250;2024-01-16T14:55:15;1.97;;;0.60;;
5961;SDS011;3007;50.770;0.250;2024-01-16T14:57:42;2.97;;;0.70;;
5961;SDS011;3007;50.770;0.250;2024-01-16T15:00:12;6.23;;;0.87;;
5961;SDS011;3007;50.770;0.250;2024-01-16T15:02:41;1.47;;;0.73;;
5961;SDS011;3007;50.770;0.250;2024-01-16T15:05:08;1.27;;;0.80;;
5961;SDS011;3007;50.770;0.250;2024-01-16T15:07:37;2.37;;;0.80;;
5961;SDS011;3007;50.770;0.250;2024-01-16T15:10:06;4.17;;;0.83;;
5961;SDS011;3007;50.770;0.250;2024-01-16T15:12:36;5.60;;;0.70;;
5961;SDS011;3007;50.770;0.250;2024-01-16T15:15:03;1.47;;;0.70;;
5961;SDS011;3007;50.770;0.250;2024-01-16T15:17:32;5.17;;;0.90;;
5961;SDS011;3007;50.770;0.250;2024-01-16T15:20:00;2.53;;;0.70;;
5961;SDS011;3007;50.770;0.250;2024-01-16T15:22:28;1.33;;;0.77;;
5961;SDS011;3007;50.770;0.250;2024-01-16T15:24:56;1.53;;;0.80;;
5961;SDS011;3007;50.770;0.250;2024-01-16T15:27:23;1.60;;;0.67;;
5961;SDS011;3007;50.770;0.250;2024-01-16T15:29:50;4.00;;;1.00;;